createdAt,value
2023-04-22T00:02:54.770Z,9.95
2023-04-22T00:08:01.186Z,9.96
2023-04-22T00:13:06.876Z,9.98
2023-04-22T00:18:15.248Z,10.01
2023-04-22T00:23:20.557Z,10.02
2023-04-22T00:28:26.110Z,10.02
2023-04-22T00:33:33.203Z,10.04
2023-04-22T00:38:38.529Z,10.06
2023-04-22T00:43:43.970Z,10.07
2023-04-22T00:48:49.296Z,10.05
2023-04-22T00:53:54.854Z,10.07
2023-04-22T00:58:59.962Z,10.09
2023-04-22T01:04:06.445Z,10.11
2023-04-22T01:09:12.249Z,10.10
2023-04-22T01:14:18.457Z,10.10
2023-04-22T01:19:25.208Z,10.16
2023-04-22T01:24:30.861Z,10.21
2023-04-22T01:29:38.235Z,10.25
2023-04-22T01:34:44.428Z,10.28
2023-04-22T01:39:51.037Z,10.30
2023-04-22T01:44:56.730Z,10.40
2023-04-22T01:50:03.159Z,10.49
2023-04-22T01:55:09.798Z,10.54
2023-04-22T02:00:15.824Z,10.56
2023-04-22T02:05:25.194Z,10.60
2023-04-22T02:10:30.554Z,10.71
2023-04-22T02:15:36.981Z,10.79
2023-04-22T02:20:42.647Z,10.87
2023-04-22T02:25:53.379Z,10.96
2023-04-22T02:30:59.945Z,10.96
2023-04-22T02:36:05.421Z,11.06
2023-04-22T02:41:11.061Z,11.08
2023-04-22T02:46:19.919Z,11.14
2023-04-22T02:51:25.685Z,11.22
2023-04-22T02:56:32.392Z,11.31
2023-04-22T03:01:38.367Z,11.39
2023-04-22T03:06:47.321Z,11.61
2023-04-22T03:11:54.059Z,11.75
2023-04-22T03:16:59.519Z,11.98
2023-04-22T03:22:05.395Z,12.16
2023-04-22T03:27:11.838Z,12.30
2023-04-22T03:32:18.781Z,12.52
2023-04-22T03:37:28.622Z,12.69
2023-04-22T03:42:34.596Z,12.82
2023-04-22T03:47:40.402Z,13.04
2023-04-22T03:52:56.229Z,13.25
2023-04-22T03:58:03.485Z,13.37
2023-04-22T04:03:09.464Z,13.56
2023-04-22T04:08:15.159Z,13.72
2023-04-22T04:13:20.906Z,13.98
2023-04-22T04:18:54.816Z,14.22
2023-04-22T04:24:03.960Z,14.44
2023-04-22T04:29:15.049Z,14.50
2023-04-22T04:34:27.133Z,14.41
2023-04-22T04:39:35.396Z,14.41
2023-04-22T04:44:41.218Z,14.55
2023-04-22T04:49:47.566Z,14.73
2023-04-22T04:54:54.154Z,14.81
2023-04-22T04:59:59.596Z,14.73
2023-04-22T05:05:05.873Z,14.76
2023-04-22T05:10:13.963Z,15.01
2023-04-22T05:15:20.100Z,15.17
2023-04-22T05:20:26.096Z,15.20
2023-04-22T05:25:31.622Z,15.21
2023-04-22T05:30:46.137Z,15.22
2023-04-22T05:35:53.602Z,15.32
2023-04-22T05:40:59.392Z,15.42
2023-04-22T05:46:05.393Z,15.58
2023-04-22T05:51:14.314Z,15.69
2023-04-22T05:56:20.285Z,15.78
2023-04-22T06:01:26.400Z,15.87
2023-04-22T06:06:39.105Z,15.81
2023-04-22T06:11:44.745Z,15.76
2023-04-22T06:16:51.692Z,15.63
2023-04-22T06:21:57.689Z,15.57
2023-04-22T06:27:03.689Z,15.58
2023-04-22T06:32:09.370Z,15.65
2023-04-22T06:37:14.894Z,15.60
2023-04-22T06:42:20.992Z,15.60
2023-04-22T06:47:47.245Z,15.60
2023-04-22T06:52:58.911Z,15.60
2023-04-22T06:58:04.733Z,15.71
2023-04-22T07:03:10.526Z,15.69
2023-04-22T07:08:16.690Z,15.71
2023-04-22T07:13:22.662Z,15.74
2023-04-22T07:18:28.722Z,15.68
2023-04-22T07:23:34.207Z,15.54
2023-04-22T07:28:39.810Z,15.44
2023-04-22T07:33:46.849Z,15.39
2023-04-22T07:38:52.908Z,15.38
2023-04-22T07:43:58.519Z,15.62
2023-04-22T07:49:03.662Z,15.94
2023-04-22T07:54:09.328Z,16.28
2023-04-22T07:59:14.778Z,16.61
2023-04-22T08:04:19.865Z,16.66
2023-04-22T08:09:25.538Z,16.43
2023-04-22T08:14:31.062Z,16.34
2023-04-22T08:19:36.733Z,16.55
2023-04-22T08:24:42.046Z,16.65
2023-04-22T08:29:47.679Z,16.69
2023-04-22T08:34:54.209Z,16.65
2023-04-22T08:40:03.845Z,16.60
2023-04-22T08:45:11.981Z,16.60
2023-04-22T08:50:17.746Z,16.53
2023-04-22T08:55:22.900Z,16.54
2023-04-22T09:00:29.525Z,16.55
2023-04-22T09:05:42.658Z,16.41
2023-04-22T09:10:48.277Z,16.30
2023-04-22T09:15:53.761Z,16.13
2023-04-22T09:20:59.212Z,16.00
2023-04-22T09:26:04.585Z,15.83
2023-04-22T09:31:16.969Z,15.70
2023-04-22T09:36:35.376Z,15.55
2023-04-22T09:41:42.395Z,15.45
2023-04-22T09:46:53.354Z,15.46
2023-04-22T09:52:02.399Z,15.38
2023-04-22T09:57:16.534Z,15.28
2023-04-22T10:02:32.353Z,15.16
2023-04-22T10:07:39.145Z,15.01
2023-04-22T10:12:45.265Z,14.91
2023-04-22T10:17:55.917Z,14.76
2023-04-22T10:23:01.698Z,14.62
2023-04-22T10:28:13.448Z,14.50
2023-04-22T10:33:36.209Z,14.41
2023-04-22T10:38:43.085Z,14.29
2023-04-22T10:43:50.432Z,14.15
2023-04-22T10:48:59.020Z,14.03
2023-04-22T10:54:04.620Z,13.88
2023-04-22T10:59:20.080Z,13.76
2023-04-22T11:04:25.901Z,13.66
2023-04-22T11:09:31.526Z,13.55
2023-04-22T11:14:37.777Z,13.39
2023-04-22T11:19:42.695Z,13.26
2023-04-22T11:24:58.082Z,13.14
2023-04-22T11:30:14.129Z,13.04
2023-04-22T11:35:26.426Z,12.94
2023-04-22T11:40:35.173Z,12.83
2023-04-22T11:45:42.736Z,12.75
2023-04-22T11:50:49.604Z,12.64
2023-04-22T11:55:56.196Z,12.53
2023-04-22T12:01:02.241Z,12.44
2023-04-22T12:06:08.304Z,12.40
2023-04-22T12:11:13.766Z,12.34
2023-04-22T12:16:22.484Z,12.20
2023-04-22T12:21:29.704Z,12.12
2023-04-22T12:26:35.408Z,12.01
2023-04-22T12:31:41.666Z,11.95
2023-04-22T12:36:47.626Z,11.87
2023-04-22T12:41:53.182Z,11.78
2023-04-22T12:46:58.794Z,11.70
2023-04-22T12:52:04.901Z,11.59
2023-04-22T12:57:11.406Z,11.50
2023-04-22T13:02:19.174Z,11.41
2023-04-22T13:07:26.025Z,11.31
2023-04-22T13:12:31.797Z,11.23
2023-04-22T13:17:39.114Z,11.21
2023-04-22T13:22:44.601Z,11.11
2023-04-22T13:27:50.271Z,11.02
2023-04-22T13:32:57.006Z,10.93
2023-04-22T13:38:03.345Z,10.87
2023-04-22T13:43:11.242Z,10.89
2023-04-22T13:48:17.397Z,10.84
2023-04-22T13:53:24.050Z,10.79
2023-04-22T13:58:30.153Z,10.68
2023-04-22T14:03:36.600Z,10.55
2023-04-22T14:08:43.268Z,10.47
2023-04-22T14:13:49.473Z,10.42
2023-04-22T14:18:58.021Z,10.36
2023-04-22T14:24:03.742Z,10.32
2023-04-22T14:29:09.461Z,10.30
2023-04-22T14:34:16.083Z,10.24
2023-04-22T14:39:20.925Z,10.24
2023-04-22T14:44:27.740Z,10.20
2023-04-22T14:49:33.476Z,10.20
2023-04-22T14:54:39.272Z,10.16
2023-04-22T14:59:44.628Z,10.16
2023-04-22T15:04:50.679Z,10.10
2023-04-22T15:09:57.104Z,10.07
2023-04-22T15:15:04.280Z,10.04
2023-04-22T15:20:11.074Z,9.97
2023-04-22T15:25:18.169Z,9.88
2023-04-22T15:30:24.969Z,9.82
2023-04-22T15:35:32.822Z,9.78
2023-04-22T15:40:38.505Z,9.72
2023-04-22T15:45:44.046Z,9.66
2023-04-22T15:50:51.174Z,9.63
2023-04-22T15:55:56.846Z,9.58
2023-04-22T16:01:15.438Z,9.57
2023-04-22T16:06:25.790Z,9.60
2023-04-22T16:11:33.756Z,9.60
2023-04-22T16:16:42.688Z,9.55
2023-04-22T16:21:48.413Z,9.52
2023-04-22T16:26:54.081Z,9.43
2023-04-22T16:31:59.714Z,9.39
2023-04-22T16:37:05.667Z,9.33
2023-04-22T16:42:12.985Z,9.29
2023-04-22T16:47:20.494Z,9.25
2023-04-22T16:52:26.187Z,9.22
2023-04-22T16:57:31.449Z,9.17
2023-04-22T17:02:36.974Z,9.10
2023-04-22T17:07:42.687Z,9.06
2023-04-22T17:12:48.437Z,9.03
2023-04-22T17:17:55.449Z,8.98
2023-04-22T17:23:00.988Z,8.91
2023-04-22T17:28:06.453Z,8.88
2023-04-22T17:33:13.324Z,8.88
2023-04-22T17:38:18.419Z,8.87
2023-04-22T17:43:24.868Z,8.88
2023-04-22T17:48:29.780Z,8.85
2023-04-22T17:53:36.163Z,8.79
2023-04-22T17:58:41.948Z,8.73
2023-04-22T18:03:47.696Z,8.67
2023-04-22T18:08:54.188Z,8.64
2023-04-22T18:13:59.731Z,8.60
2023-04-22T18:19:08.066Z,8.56
2023-04-22T18:24:14.013Z,8.49
2023-04-22T18:29:19.939Z,8.46
2023-04-22T18:34:25.574Z,8.41
2023-04-22T18:39:30.727Z,8.36
2023-04-22T18:44:36.973Z,8.30
2023-04-22T18:49:42.892Z,8.29
2023-04-22T18:54:48.519Z,8.28
2023-04-22T18:59:54.015Z,8.26
2023-04-22T19:05:00.636Z,8.24
2023-04-22T19:10:06.671Z,8.22
2023-04-22T19:15:12.494Z,8.20
2023-04-22T19:20:17.771Z,8.20
2023-04-22T19:25:22.674Z,8.11
2023-04-22T19:30:29.350Z,8.12
2023-04-22T19:35:34.756Z,8.17
2023-04-22T19:40:40.326Z,8.18
2023-04-22T19:45:45.558Z,8.19
2023-04-22T19:50:51.126Z,8.17
2023-04-22T19:55:56.757Z,8.08
2023-04-22T20:01:02.681Z,8.05
2023-04-22T20:06:08.614Z,8.10
2023-04-22T20:11:14.736Z,8.12
2023-04-22T20:16:22.133Z,8.13
2023-04-22T20:21:30.297Z,8.07
2023-04-22T20:26:36.385Z,8.07
2023-04-22T20:31:42.138Z,8.05
2023-04-22T20:36:48.019Z,8.06
2023-04-22T20:41:59.904Z,8.04
2023-04-22T20:47:05.716Z,8.00
2023-04-22T20:52:13.470Z,7.96
2023-04-22T20:57:19.236Z,7.92
2023-04-22T21:02:25.938Z,7.95
2023-04-22T21:07:32.119Z,7.92
2023-04-22T21:12:37.782Z,7.90
2023-04-22T21:17:47.439Z,7.92
2023-04-22T21:22:57.014Z,7.95
2023-04-22T21:28:02.902Z,7.92
2023-04-22T21:33:08.764Z,7.94
2023-04-22T21:38:14.818Z,8.00
2023-04-22T21:43:20.549Z,8.03
2023-04-22T21:48:26.130Z,8.08
2023-04-22T21:53:31.549Z,8.13
2023-04-22T21:58:37.192Z,8.18
2023-04-22T22:03:43.155Z,8.22
2023-04-22T22:08:49.777Z,8.30
2023-04-22T22:13:56.632Z,8.36
2023-04-22T22:19:05.844Z,8.37
2023-04-22T22:24:11.878Z,8.44
2023-04-22T22:29:18.453Z,8.50
2023-04-22T22:34:24.480Z,8.56
2023-04-22T22:39:30.390Z,8.65
2023-04-22T22:44:36.196Z,8.73
2023-04-22T22:49:42.214Z,8.81
2023-04-22T22:54:50.346Z,8.92
2023-04-22T22:59:55.861Z,9.03
2023-04-22T23:05:04.339Z,9.10
2023-04-22T23:10:16.950Z,9.18
2023-04-22T23:15:23.744Z,9.27
2023-04-22T23:20:30.235Z,9.34
2023-04-22T23:25:39.982Z,9.53
2023-04-22T23:30:51.292Z,9.80
2023-04-22T23:35:58.881Z,10.04
2023-04-22T23:41:04.577Z,10.21
2023-04-22T23:46:14.614Z,10.35
2023-04-22T23:51:20.860Z,10.53
2023-04-22T23:56:27.596Z,10.68
